Sherwood, North Dakota
Current Conditions -  °F | °C
As of 9:03 PM on Tuesday 25 Nov 2014 (Local Time) from KMIB Reporting Station
Drizzle Drizzle  
Wind Chill: -3°   Ceiling: 400
Heat Index: 10°   Visibility: 10mi
Dew Point:   Wind: 10mph
Humidity: 85%   Direction: 20°NNE
Pressure: 30.08"   Gusts: NA
Location:  48.96°N, 101.63°W
Report Text: KMIB 260303Z AUTO 02009KT 10SM -DZ BKN004 OVC008 M12/M14 A3008 RMK AO2 VIS 1/2 RWY29 DZB0258 CIG 002V004
Loading
Personal Weather Stations






























Interactive Weather Map New forecast layout! Learn more

10-Day Weather Forecast

Advertisements
Track Severe Weather on mobile